Nanjemoy, Maryland
Current Conditions -  °F | °C
As of 9:56 AM on Friday 24 Oct 2014 (Local Time) from KNYG Reporting Station
Broken Clouds Broken Clouds  
Wind Chill: 57°   Ceiling: 12000
Heat Index: 57°   Visibility: 10mi
Dew Point: 42°   Wind: 21mph
Humidity: 57%   Direction: 330°NNW
Pressure: 30.02"   Gusts: 28mph
Location:  38.45°N, 77.22°W
Report Text: KNYG 241356Z 33018G24KT 10SM BKN120 14/06 A3002 RMK AO2 SLP166 T01390056 $
Loading
Personal Weather Stations






























Interactive Weather Map
Tropical Storm Tracking
New forecast layout! Learn more

10-Day Weather Forecast

Advertisements
Track Severe Weather on mobile